92WI weather

Knight Aire Airport
Merrill, Wisconsin, United States

Public forecast

Using degrees Fahrenheit for public forecast. Weather courtesy of forecast.io.

Closest aviation weather report (METAR) to Knight Aire Airport

Closest report is Merrill Municipal Airport, 6.6 nm (12.2 km) SSW. Retrieved 2020/04/08 04:55 UTC (7 minutes ago):

KRRL 080455Z AUTO 29004KT 4SM BR SCT002 SCT060 BKN090 08/08 A2970 RMK AO2 T00830083 TSNO

Closest aviation forecast (TAF) to Knight Aire Airport

Closest forecast is Rhinelander Oneida County Airport, 21.4 nm (39.6 km) NNE. Retrieved 2020-04-08 00:22 UTC (5 hours ago):

TAF KRHI 072320Z 0800/0824 31005KT P6SM SCT200 FM080500 27002KT 2SM BR SCT150 TEMPO 0808/0812 1/2SM FG BKN002 FM081400 26006KT P6SM SCT110 FM081800 29014G22KT P6SM BKN080